CEFAS Endeavour — VQHF3 — position and weather

sailwx.info

Track history (hours):
 
Tides and Currents Weather Stations Pressure Air Temp Water Temp Dewpoint Dewpoint Depression Visibility Wind Speed Wind Dir Waves Ship Positions

Oceanographic research ship CEFAS Endeavour (UK)

Detailed information on ship capabilities available from University of Delaware's Ocean Information Center.

Last reported at 2017-Oct-19 16:30 UTC. Time now 2017-Oct-19 16:36 UTC.
Position N 50°11' W 003°48'.

Length 74 m; draft 8.4 m.

Type: Ship. MMSI: 235005270.

Date/timePositionNaut miles runAvg speedWind from/ knotsBaromVisibWave heightAir tempDewpointWater temp
2017-Oct-19 16:30N 50°11' W 003°48'3 6.4
2017-Oct-19 16:00N 50°08' W 003°48'5 9.8
2017-Oct-19 15:30N 50°03' W 003°48'1 1.4
2017-Oct-19 15:00N 50°03' W 003°47'3 3.9
2017-Oct-19 14:20N 50°00' W 003°49'1 3.6
2017-Oct-19 14:00N 49°60' W 003°50'1 3.0
2017-Oct-19 13:31N 50°01' W 003°50'1 2.2
2017-Oct-19 12:54N 50°02' W 003°48'4 9.6
2017-Oct-19 12:30N 49°58' W 003°48'510.2
2017-Oct-19 12:00N 49°53' W 003°48'510.2
2017-Oct-19 11:30N 49°48' W 003°48'510.1
2017-Oct-19 10:59N 49°42' W 003°48'13 6.4
2017-Oct-19 09:03N 49°36' W 004°05'210.8
2017-Oct-19 08:52N 49°34' W 004°06'4 2.8
2017-Oct-19 07:20N 49°37' W 004°02'2 5.4
2017-Oct-19 07:00N 49°36' W 004°03'21 5.4
2017-Oct-19 03:04N 49°42' W 003°32'1 9.4
2017-Oct-19 02:59N 49°42' W 003°31'5 9.9
2017-Oct-19 02:30N 49°44' W 003°24'510.6
2017-Oct-19 02:00N 49°47' W 003°16'611.4
2017-Oct-19 01:30N 49°49' W 003°09'612.2
2017-Oct-19 01:00N 49°52' W 002°60'612.6
2017-Oct-19 00:30N 49°53' W 002°50'16 4.9
2017-Oct-18 21:11N 50°08' W 002°38'3 9.8
2017-Oct-18 20:53N 50°07' W 002°42'410.1
2017-Oct-18 20:30N 50°06' W 002°48'510.4
2017-Oct-18 20:00N 50°04' W 002°56'510.3
2017-Oct-18 19:30N 50°02' W 003°03'510.6
2017-Oct-18 19:00N 49°58' W 003°08'1 1.3
2017-Oct-18 18:27N 49°58' W 003°09'1 2.4
2017-Oct-18 18:00N 49°59' W 003°08'2 4.0
2017-Oct-18 17:30N 50°01' W 003°09'5 9.6
2017-Oct-18 17:00N 49°56' W 003°09'4 7.5
2017-Oct-18 16:29N 49°52' W 003°09'1 1.5
2017-Oct-18 15:57N 49°52' W 003°10'2 4.2
2017-Oct-18 15:30N 49°53' W 003°13'2 3.1
2017-Oct-18 15:00N 49°51' W 003°11'17 6.1
2017-Oct-18 12:14N 49°34' W 003°08'22 2.1
2017-Oct-18 01:50N 49°56' W 003°09'511.3
2017-Oct-18 01:23N 50°01' W 003°12'2 5.4
2017-Oct-18 01:01N 50°03' W 003°13'2 3.0
2017-Oct-18 00:30N 50°03' W 003°10'3 5.4
2017-Oct-18 00:00N 50°06' W 003°11'611.3
2017-Oct-17 23:30N 50°11' W 003°13'611.5
2017-Oct-17 23:00N 50°17' W 003°16'3 6.8
2017-Oct-17 22:31N 50°20' W 003°18'4 8.7
2017-Oct-17 22:00N 50°17' W 003°22'510.0
2017-Oct-17 21:30N 50°13' W 003°28'510.0
2017-Oct-17 21:00N 50°10' W 003°33'2 4.8
2017-Oct-17 20:30N 50°08' W 003°34'510.8
2017-Oct-17 20:00N 50°03' W 003°38'611.1
2017-Oct-17 19:30N 49°59' W 003°44'611.2
2017-Oct-17 19:00N 49°54' W 003°49'9 3.7
2017-Oct-17 16:28N 49°52' W 004°04'2 4.9
2017-Oct-17 15:59N 49°55' W 004°04'6 6.2
2017-Oct-17 15:01N 50°01' W 004°04'1 9.9
2017-Oct-17 14:54N 50°02' W 004°04'4 9.8
2017-Oct-17 14:30N 50°06' W 004°04'2 4.6
2017-Oct-17 14:00N 50°08' W 004°03'2 3.7
2017-Oct-17 13:30N 50°06' W 004°04'2 3.5
2017-Oct-17 13:00N 50°05' W 004°04'5 9.7
2017-Oct-17 12:30N 50°09' W 004°04'5 9.1
2017-Oct-17 12:00N 50°14' W 004°05'510.9
2017-Oct-17 11:31N 50°12' W 004°13'1 1.9
2017-Oct-17 11:01N 50°13' W 004°13'5 4.1
2017-Oct-17 09:51N 50°14' W 004°05'1 3.6
2017-Oct-17 09:30N 50°14' W 004°04'1 1.7
2017-Oct-17 09:00N 50°14' W 004°04'4 7.2
2017-Oct-17 08:30N 50°17' W 004°04'511.1
2017-Oct-17 08:00N 50°17' W 004°13'611.3
2017-Oct-17 07:30N 50°17' W 004°22'510.1
2017-Oct-17 07:00N 50°18' W 004°30'510.8
2017-Oct-17 06:30N 50°19' W 004°38'2 0.0
2017-Oct-15 15:54N 50°20' W 004°38'2 1.8
2017-Oct-15 14:43N 50°18' W 004°37'2 3.5
2017-Oct-15 14:01N 50°16' W 004°35'510.1
2017-Oct-15 13:30N 50°11' W 004°35'510.3
2017-Oct-15 13:00N 50°06' W 004°35'510.3
2017-Oct-15 12:31N 50°01' W 004°35'510.0
2017-Oct-15 12:01N 49°56' W 004°35'910.3
2017-Oct-15 11:07N 49°47' W 004°34'1010.2
2017-Oct-15 10:09N 49°37' W 004°34'210.2
2017-Oct-15 09:59N 49°35' W 004°34'510.2
2017-Oct-15 09:31N 49°30' W 004°34'510.1
2017-Oct-15 09:00N 49°25' W 004°33'6 9.2
2017-Oct-15 08:18N 49°22' W 004°42'311.6
2017-Oct-15 08:01N 49°22' W 004°48'4 7.9
2017-Oct-15 07:30N 49°25' W 004°50'510.3
2017-Oct-15 07:01N 49°30' W 004°50'510.4
2017-Oct-15 06:30N 49°36' W 004°50'1 2.8
2017-Oct-15 06:01N 49°37' W 004°50'3 5.9
2017-Oct-15 05:31N 49°40' W 004°48'4 7.0
2017-Oct-15 05:00N 49°43' W 004°47'3 6.9
2017-Oct-15 04:31N 49°47' W 004°45'3 6.9
2017-Oct-15 04:01N 49°50' W 004°44'3 6.8
2017-Oct-15 03:31N 49°53' W 004°43'3 6.8
2017-Oct-15 03:01N 49°56' W 004°41'4 6.8
2017-Oct-15 02:28N 49°60' W 004°40'3 6.7
2017-Oct-15 02:00N 50°03' W 004°38'3 6.7
2017-Oct-15 01:30N 50°06' W 004°37'3 6.6
2017-Oct-15 01:01N 50°09' W 004°36'1 2.0
2017-Oct-15 00:31N 50°10' W 004°35'4 8.0
2017-Oct-15 00:00N 50°07' W 004°31'612.1
2017-Oct-14 23:30N 50°03' W 004°24'4 8.0
2017-Oct-14 23:00N 50°01' W 004°19'1 2.6
2017-Oct-14 22:30N 50°01' W 004°18'612.0
2017-Oct-14 21:59N 50°06' W 004°11'611.7
2017-Oct-14 21:31N 50°10' W 004°06'1 1.6
2017-Oct-14 21:01N 50°10' W 004°05'4 8.3
2017-Oct-14 20:31N 50°12' W 004°10'611.1
2017-Oct-14 20:01N 50°16' W 004°16'3 5.8
2017-Oct-14 19:30N 50°18' W 004°20'4 8.2
2017-Oct-14 19:00N 50°16' W 004°14'1 2.9
2017-Oct-14 18:31N 50°16' W 004°17'2 4.3
2017-Oct-14 18:00N 50°17' W 004°20'2 3.9
2017-Oct-14 17:31N 50°18' W 004°22'2 3.2
2017-Oct-14 17:00N 50°18' W 004°20'0 0.5
2017-Oct-14 16:31N 50°18' W 004°19'0 0.3
2017-Oct-14 15:59N 50°18' W 004°19'1 2.1
2017-Oct-14 15:30N 50°17' W 004°20'510.2
2017-Oct-14 15:00N 50°12' W 004°20'510.2
2017-Oct-14 14:31N 50°07' W 004°20'510.2
2017-Oct-14 14:00N 50°02' W 004°19'510.0
2017-Oct-14 13:29N 49°56' W 004°19'510.0
2017-Oct-14 12:58N 49°51' W 004°19'510.0
2017-Oct-14 12:30N 49°46' W 004°19'5 6.7
2017-Oct-14 11:45N 49°41' W 004°19'1 3.3
2017-Oct-14 11:20N 49°43' W 004°19'3 4.0
2017-Oct-14 10:43N 49°45' W 004°19'1 2.9
2017-Oct-14 10:27N 49°46' W 004°18'1 2.8
2017-Oct-14 10:01N 49°45' W 004°19'5 9.9
2017-Oct-14 09:30N 49°40' W 004°19'510.0
2017-Oct-14 09:01N 49°35' W 004°19'510.1
2017-Oct-14 08:29N 49°30' W 004°21'4 3.0
2017-Oct-14 07:17N 49°32' W 004°18'2 5.7
2017-Oct-14 06:59N 49°34' W 004°18'4 8.2
2017-Oct-14 06:29N 49°30' W 004°18'10 6.5
2017-Oct-14 04:58N 49°31' W 004°03'22 7.2
2017-Oct-14 01:54N 49°40' W 003°32'2 4.0
2017-Oct-14 01:29N 49°41' W 003°34'4 8.9
2017-Oct-14 01:00N 49°45' W 003°38'5 9.5
2017-Oct-14 00:30N 49°48' W 003°44'3 6.8
2017-Oct-14 00:01N 49°50' W 003°47'2 4.5
2017-Oct-13 23:31N 49°50' W 003°51'612.5
2017-Oct-13 23:00N 49°50' W 004°01'3 5.9
2017-Oct-13 22:30N 49°49' W 004°05'612.2
2017-Oct-13 21:59N 49°46' W 004°13'612.1
2017-Oct-13 21:30N 49°43' W 004°21'612.0
2017-Oct-13 21:00N 49°40' W 004°29'611.8
2017-Oct-13 20:28N 49°36' W 004°37'611.6
2017-Oct-13 19:56N 49°33' W 004°45'4 8.8
2017-Oct-13 19:30N 49°31' W 004°50'25 5.4
2017-Oct-13 14:52N 49°57' W 004°51'910.1
2017-Oct-13 13:58N 50°06' W 004°51'510.2
2017-Oct-13 13:31N 50°10' W 004°52'1 2.9
2017-Oct-13 13:01N 50°10' W 004°54'611.8
2017-Oct-13 12:31N 50°05' W 004°59'510.2
2017-Oct-13 11:59N 50°01' W 005°04'4 9.1
2017-Oct-13 11:30N 49°57' W 005°06'510.1
2017-Oct-13 10:59N 49°51' W 005°06'5 9.9
2017-Oct-13 10:30N 49°47' W 005°06'5 9.8
2017-Oct-13 09:59N 49°42' W 005°06'2 1.1
2017-Oct-13 08:13N 49°40' W 005°04'1 3.1
2017-Oct-13 07:47N 49°41' W 005°04'1 5.0
2017-Oct-13 07:29N 49°41' W 005°06'23 5.2
2017-Oct-13 03:00N 49°31' W 004°34'14 6.9
2017-Oct-13 00:57N 49°41' W 004°18'1 1.2
2017-Oct-13 00:31N 49°40' W 004°19'4 6.3
2017-Oct-12 23:57N 49°42' W 004°23'7 8.4
2017-Oct-12 23:05N 49°48' W 004°30'1 8.5
2017-Oct-12 22:57N 49°49' W 004°32'2 5.0
2017-Oct-12 22:30N 49°50' W 004°34'4 7.5
2017-Oct-12 21:57N 49°53' W 004°39'4 9.1
2017-Oct-12 21:29N 49°56' W 004°44'4 9.0
2017-Oct-12 21:00N 49°59' W 004°49'2 4.0
2017-Oct-12 20:26N 49°60' W 004°52'512.3
2017-Oct-12 20:01N 49°58' W 004°60'1211.0
2017-Oct-12 18:56N 49°57' W 005°18'511.5
2017-Oct-12 18:30N 50°01' W 005°22'10 3.5
2017-Oct-12 15:42N 49°52' W 005°22'2 3.2
2017-Oct-12 15:13N 49°52' W 005°25'3 8.9
2017-Oct-12 14:54N 49°54' W 005°21'510.5
2017-Oct-12 14:27N 49°49' W 005°21'710.3
2017-Oct-12 13:49N 49°42' W 005°21'310.1
2017-Oct-12 13:30N 49°39' W 005°21'24 7.4
2017-Oct-12 10:17N 49°17' W 005°35'310.2
2017-Oct-12 09:58N 49°21' W 005°35'910.2
2017-Oct-12 09:04N 49°30' W 005°36'510.1
2017-Oct-12 08:36N 49°35' W 005°36'110.0
2017-Oct-12 08:31N 49°35' W 005°36'1510.0
2017-Oct-12 07:02N 49°50' W 005°37'0 9.8
2017-Oct-12 07:00N 49°50' W 005°37'25 3.0
2017-Oct-11 22:37N 49°46' W 004°58'2 9.8
2017-Oct-11 22:26N 49°47' W 005°00'5 7.8
2017-Oct-11 21:51N 49°51' W 005°05'1 1.8
2017-Oct-11 21:21N 49°50' W 005°06'3 9.4
2017-Oct-11 21:00N 49°52' W 005°10'8 9.8
2017-Oct-11 20:11N 49°58' W 005°18'3 9.4
2017-Oct-11 19:55N 50°01' W 005°20'3 6.6
2017-Oct-11 19:31N 50°03' W 005°22'4 7.8
2017-Oct-11 18:59N 50°00' W 005°26'4 8.8
2017-Oct-11 18:30N 49°58' W 005°31'5 2.5
2017-Oct-11 16:36N 49°54' W 005°37'5 0.3
2017-Oct-10 23:44N 49°49' W 005°37'12 9.3
2017-Oct-10 22:24N 49°40' W 005°50'1910.5
2017-Oct-10 20:33N 49°58' W 006°00'36 3.6
2017-Oct-10 10:34N 49°26' W 006°23'12 1.5
2017-Oct-10 02:55N 49°27' W 006°05'12 6.2
2017-Oct-10 00:58N 49°23' W 006°23'19 3.0
2017-Oct-09 18:47N 49°32' W 006°48'611.2
2017-Oct-09 18:17N 49°37' W 006°43'311.2
2017-Oct-09 18:00N 49°40' W 006°41'  
Track history (hours):
 
Tides and Currents Weather Stations Pressure Air Temp Water Temp Dewpoint Dewpoint Depression Visibility Wind Speed Wind Dir Waves Ship Positions

Oceanographic research ship CEFAS Endeavour (UK)

Detailed information on ship capabilities available from University of Delaware's Ocean Information Center.

Last reported at 2017-Oct-19 16:30 UTC. Time now 2017-Oct-19 16:36 UTC.
Position N 50°11' W 003°48'.

Length 74 m; draft 8.4 m.

Type: Ship. MMSI: 235005270.

Date/timePositionNaut miles runAvg speedWind from/ knotsBaromVisibWave heightAir tempDewpointWater temp
2017-Oct-19 16:30N 50°11' W 003°48'3 6.4
2017-Oct-19 16:00N 50°08' W 003°48'5 9.8
2017-Oct-19 15:30N 50°03' W 003°48'1 1.4
2017-Oct-19 15:00N 50°03' W 003°47'3 3.9
2017-Oct-19 14:20N 50°00' W 003°49'1 3.6
2017-Oct-19 14:00N 49°60' W 003°50'1 3.0
2017-Oct-19 13:31N 50°01' W 003°50'1 2.2
2017-Oct-19 12:54N 50°02' W 003°48'4 9.6
2017-Oct-19 12:30N 49°58' W 003°48'510.2
2017-Oct-19 12:00N 49°53' W 003°48'510.2
2017-Oct-19 11:30N 49°48' W 003°48'510.1
2017-Oct-19 10:59N 49°42' W 003°48'13 6.4
2017-Oct-19 09:03N 49°36' W 004°05'210.8
2017-Oct-19 08:52N 49°34' W 004°06'4 2.8
2017-Oct-19 07:20N 49°37' W 004°02'2 5.4
2017-Oct-19 07:00N 49°36' W 004°03'21 5.4
2017-Oct-19 03:04N 49°42' W 003°32'1 9.4
2017-Oct-19 02:59N 49°42' W 003°31'5 9.9
2017-Oct-19 02:30N 49°44' W 003°24'510.6
2017-Oct-19 02:00N 49°47' W 003°16'611.4
2017-Oct-19 01:30N 49°49' W 003°09'612.2
2017-Oct-19 01:00N 49°52' W 002°60'612.6
2017-Oct-19 00:30N 49°53' W 002°50'16 4.9
2017-Oct-18 21:11N 50°08' W 002°38'3 9.8
2017-Oct-18 20:53N 50°07' W 002°42'410.1
2017-Oct-18 20:30N 50°06' W 002°48'510.4
2017-Oct-18 20:00N 50°04' W 002°56'510.3
2017-Oct-18 19:30N 50°02' W 003°03'510.6
2017-Oct-18 19:00N 49°58' W 003°08'1 1.3
2017-Oct-18 18:27N 49°58' W 003°09'1 2.4
2017-Oct-18 18:00N 49°59' W 003°08'2 4.0
2017-Oct-18 17:30N 50°01' W 003°09'5 9.6
2017-Oct-18 17:00N 49°56' W 003°09'4 7.5
2017-Oct-18 16:29N 49°52' W 003°09'1 1.5
2017-Oct-18 15:57N 49°52' W 003°10'2 4.2
2017-Oct-18 15:30N 49°53' W 003°13'2 3.1
2017-Oct-18 15:00N 49°51' W 003°11'17 6.1
2017-Oct-18 12:14N 49°34' W 003°08'22 2.1
2017-Oct-18 01:50N 49°56' W 003°09'511.3
2017-Oct-18 01:23N 50°01' W 003°12'2 5.4
2017-Oct-18 01:01N 50°03' W 003°13'2 3.0
2017-Oct-18 00:30N 50°03' W 003°10'3 5.4
2017-Oct-18 00:00N 50°06' W 003°11'611.3
2017-Oct-17 23:30N 50°11' W 003°13'611.5
2017-Oct-17 23:00N 50°17' W 003°16'3 6.8
2017-Oct-17 22:31N 50°20' W 003°18'4 8.7
2017-Oct-17 22:00N 50°17' W 003°22'510.0
2017-Oct-17 21:30N 50°13' W 003°28'510.0
2017-Oct-17 21:00N 50°10' W 003°33'2 4.8
2017-Oct-17 20:30N 50°08' W 003°34'510.8
2017-Oct-17 20:00N 50°03' W 003°38'611.1
2017-Oct-17 19:30N 49°59' W 003°44'611.2
2017-Oct-17 19:00N 49°54' W 003°49'9 3.7
2017-Oct-17 16:28N 49°52' W 004°04'2 4.9
2017-Oct-17 15:59N 49°55' W 004°04'6 6.2
2017-Oct-17 15:01N 50°01' W 004°04'1 9.9
2017-Oct-17 14:54N 50°02' W 004°04'4 9.8
2017-Oct-17 14:30N 50°06' W 004°04'2 4.6
2017-Oct-17 14:00N 50°08' W 004°03'2 3.7
2017-Oct-17 13:30N 50°06' W 004°04'2 3.5
2017-Oct-17 13:00N 50°05' W 004°04'5 9.7
2017-Oct-17 12:30N 50°09' W 004°04'5 9.1
2017-Oct-17 12:00N 50°14' W 004°05'510.9
2017-Oct-17 11:31N 50°12' W 004°13'1 1.9
2017-Oct-17 11:01N 50°13' W 004°13'5 4.1
2017-Oct-17 09:51N 50°14' W 004°05'1 3.6
2017-Oct-17 09:30N 50°14' W 004°04'1 1.7
2017-Oct-17 09:00N 50°14' W 004°04'4 7.2
2017-Oct-17 08:30N 50°17' W 004°04'511.1
2017-Oct-17 08:00N 50°17' W 004°13'611.3
2017-Oct-17 07:30N 50°17' W 004°22'510.1
2017-Oct-17 07:00N 50°18' W 004°30'510.8
2017-Oct-17 06:30N 50°19' W 004°38'2 0.0
2017-Oct-15 15:54N 50°20' W 004°38'2 1.8
2017-Oct-15 14:43N 50°18' W 004°37'2 3.5
2017-Oct-15 14:01N 50°16' W 004°35'510.1
2017-Oct-15 13:30N 50°11' W 004°35'510.3
2017-Oct-15 13:00N 50°06' W 004°35'510.3
2017-Oct-15 12:31N 50°01' W 004°35'510.0
2017-Oct-15 12:01N 49°56' W 004°35'910.3
2017-Oct-15 11:07N 49°47' W 004°34'1010.2
2017-Oct-15 10:09N 49°37' W 004°34'210.2
2017-Oct-15 09:59N 49°35' W 004°34'510.2
2017-Oct-15 09:31N 49°30' W 004°34'510.1
2017-Oct-15 09:00N 49°25' W 004°33'6 9.2
2017-Oct-15 08:18N 49°22' W 004°42'311.6
2017-Oct-15 08:01N 49°22' W 004°48'4 7.9
2017-Oct-15 07:30N 49°25' W 004°50'510.3
2017-Oct-15 07:01N 49°30' W 004°50'510.4
2017-Oct-15 06:30N 49°36' W 004°50'1 2.8
2017-Oct-15 06:01N 49°37' W 004°50'3 5.9
2017-Oct-15 05:31N 49°40' W 004°48'4 7.0
2017-Oct-15 05:00N 49°43' W 004°47'3 6.9
2017-Oct-15 04:31N 49°47' W 004°45'3 6.9
2017-Oct-15 04:01N 49°50' W 004°44'3 6.8
2017-Oct-15 03:31N 49°53' W 004°43'3 6.8
2017-Oct-15 03:01N 49°56' W 004°41'4 6.8
2017-Oct-15 02:28N 49°60' W 004°40'3 6.7
2017-Oct-15 02:00N 50°03' W 004°38'3 6.7
2017-Oct-15 01:30N 50°06' W 004°37'3 6.6
2017-Oct-15 01:01N 50°09' W 004°36'1 2.0
2017-Oct-15 00:31N 50°10' W 004°35'4 8.0
2017-Oct-15 00:00N 50°07' W 004°31'612.1
2017-Oct-14 23:30N 50°03' W 004°24'4 8.0
2017-Oct-14 23:00N 50°01' W 004°19'1 2.6
2017-Oct-14 22:30N 50°01' W 004°18'612.0
2017-Oct-14 21:59N 50°06' W 004°11'611.7
2017-Oct-14 21:31N 50°10' W 004°06'1 1.6
2017-Oct-14 21:01N 50°10' W 004°05'4 8.3
2017-Oct-14 20:31N 50°12' W 004°10'611.1
2017-Oct-14 20:01N 50°16' W 004°16'3 5.8
2017-Oct-14 19:30N 50°18' W 004°20'4 8.2
2017-Oct-14 19:00N 50°16' W 004°14'1 2.9
2017-Oct-14 18:31N 50°16' W 004°17'2 4.3
2017-Oct-14 18:00N 50°17' W 004°20'2 3.9
2017-Oct-14 17:31N 50°18' W 004°22'2 3.2
2017-Oct-14 17:00N 50°18' W 004°20'0 0.5
2017-Oct-14 16:31N 50°18' W 004°19'0 0.3
2017-Oct-14 15:59N 50°18' W 004°19'1 2.1
2017-Oct-14 15:30N 50°17' W 004°20'510.2
2017-Oct-14 15:00N 50°12' W 004°20'510.2
2017-Oct-14 14:31N 50°07' W 004°20'510.2
2017-Oct-14 14:00N 50°02' W 004°19'510.0
2017-Oct-14 13:29N 49°56' W 004°19'510.0
2017-Oct-14 12:58N 49°51' W 004°19'510.0
2017-Oct-14 12:30N 49°46' W 004°19'5 6.7
2017-Oct-14 11:45N 49°41' W 004°19'1 3.3
2017-Oct-14 11:20N 49°43' W 004°19'3 4.0
2017-Oct-14 10:43N 49°45' W 004°19'1 2.9
2017-Oct-14 10:27N 49°46' W 004°18'1 2.8
2017-Oct-14 10:01N 49°45' W 004°19'5 9.9
2017-Oct-14 09:30N 49°40' W 004°19'510.0
2017-Oct-14 09:01N 49°35' W 004°19'510.1
2017-Oct-14 08:29N 49°30' W 004°21'4 3.0
2017-Oct-14 07:17N 49°32' W 004°18'2 5.7
2017-Oct-14 06:59N 49°34' W 004°18'4 8.2
2017-Oct-14 06:29N 49°30' W 004°18'10 6.5
2017-Oct-14 04:58N 49°31' W 004°03'22 7.2
2017-Oct-14 01:54N 49°40' W 003°32'2 4.0
2017-Oct-14 01:29N 49°41' W 003°34'4 8.9
2017-Oct-14 01:00N 49°45' W 003°38'5 9.5
2017-Oct-14 00:30N 49°48' W 003°44'3 6.8
2017-Oct-14 00:01N 49°50' W 003°47'2 4.5
2017-Oct-13 23:31N 49°50' W 003°51'612.5
2017-Oct-13 23:00N 49°50' W 004°01'3 5.9
2017-Oct-13 22:30N 49°49' W 004°05'612.2
2017-Oct-13 21:59N 49°46' W 004°13'612.1
2017-Oct-13 21:30N 49°43' W 004°21'612.0
2017-Oct-13 21:00N 49°40' W 004°29'611.8
2017-Oct-13 20:28N 49°36' W 004°37'611.6
2017-Oct-13 19:56N 49°33' W 004°45'4 8.8
2017-Oct-13 19:30N 49°31' W 004°50'25 5.4
2017-Oct-13 14:52N 49°57' W 004°51'910.1
2017-Oct-13 13:58N 50°06' W 004°51'510.2
2017-Oct-13 13:31N 50°10' W 004°52'1 2.9
2017-Oct-13 13:01N 50°10' W 004°54'611.8
2017-Oct-13 12:31N 50°05' W 004°59'510.2
2017-Oct-13 11:59N 50°01' W 005°04'4 9.1
2017-Oct-13 11:30N 49°57' W 005°06'510.1
2017-Oct-13 10:59N 49°51' W 005°06'5 9.9
2017-Oct-13 10:30N 49°47' W 005°06'5 9.8
2017-Oct-13 09:59N 49°42' W 005°06'2 1.1
2017-Oct-13 08:13N 49°40' W 005°04'1 3.1
2017-Oct-13 07:47N 49°41' W 005°04'1 5.0
2017-Oct-13 07:29N 49°41' W 005°06'23 5.2
2017-Oct-13 03:00N 49°31' W 004°34'14 6.9
2017-Oct-13 00:57N 49°41' W 004°18'1 1.2
2017-Oct-13 00:31N 49°40' W 004°19'4 6.3
2017-Oct-12 23:57N 49°42' W 004°23'7 8.4
2017-Oct-12 23:05N 49°48' W 004°30'1 8.5
2017-Oct-12 22:57N 49°49' W 004°32'2 5.0
2017-Oct-12 22:30N 49°50' W 004°34'4 7.5
2017-Oct-12 21:57N 49°53' W 004°39'4 9.1
2017-Oct-12 21:29N 49°56' W 004°44'4 9.0
2017-Oct-12 21:00N 49°59' W 004°49'2 4.0
2017-Oct-12 20:26N 49°60' W 004°52'512.3
2017-Oct-12 20:01N 49°58' W 004°60'1211.0
2017-Oct-12 18:56N 49°57' W 005°18'511.5
2017-Oct-12 18:30N 50°01' W 005°22'10 3.5
2017-Oct-12 15:42N 49°52' W 005°22'2 3.2
2017-Oct-12 15:13N 49°52' W 005°25'3 8.9
2017-Oct-12 14:54N 49°54' W 005°21'510.5
2017-Oct-12 14:27N 49°49' W 005°21'710.3
2017-Oct-12 13:49N 49°42' W 005°21'310.1
2017-Oct-12 13:30N 49°39' W 005°21'24 7.4
2017-Oct-12 10:17N 49°17' W 005°35'310.2
2017-Oct-12 09:58N 49°21' W 005°35'910.2
2017-Oct-12 09:04N 49°30' W 005°36'510.1
2017-Oct-12 08:36N 49°35' W 005°36'110.0
2017-Oct-12 08:31N 49°35' W 005°36'1510.0
2017-Oct-12 07:02N 49°50' W 005°37'0 9.8
2017-Oct-12 07:00N 49°50' W 005°37'25 3.0
2017-Oct-11 22:37N 49°46' W 004°58'2 9.8
2017-Oct-11 22:26N 49°47' W 005°00'5 7.8
2017-Oct-11 21:51N 49°51' W 005°05'1 1.8
2017-Oct-11 21:21N 49°50' W 005°06'3 9.4
2017-Oct-11 21:00N 49°52' W 005°10'8 9.8
2017-Oct-11 20:11N 49°58' W 005°18'3 9.4
2017-Oct-11 19:55N 50°01' W 005°20'3 6.6
2017-Oct-11 19:31N 50°03' W 005°22'4 7.8
2017-Oct-11 18:59N 50°00' W 005°26'4 8.8
2017-Oct-11 18:30N 49°58' W 005°31'5 2.5
2017-Oct-11 16:36N 49°54' W 005°37'5 0.3
2017-Oct-10 23:44N 49°49' W 005°37'12 9.3
2017-Oct-10 22:24N 49°40' W 005°50'1910.5
2017-Oct-10 20:33N 49°58' W 006°00'36 3.6
2017-Oct-10 10:34N 49°26' W 006°23'12 1.5
2017-Oct-10 02:55N 49°27' W 006°05'12 6.2
2017-Oct-10 00:58N 49°23' W 006°23'19 3.0
2017-Oct-09 18:47N 49°32' W 006°48'611.2
2017-Oct-09 18:17N 49°37' W 006°43'311.2
2017-Oct-09 18:00N 49°40' W 006°41'  

Dump ship's entire track history